Terminal Aerodrome Forecast
Issued by NWS

Home | Current Version | Previous Version | Text Only | Print | Product List | Glossary On
Versions: 1 2 3 4 5 6 7 8 9 10 11 12 13 14
000
FTUS45 KRIW 292339
TAFRKS
TAF
KRKS 292339Z 3000/3024 21011KT P6SM FEW100 SCT200
     FM300400 18008G15KT P6SM SCT090 BKN200
     FM301800 24016G26KT P6SM VCTS SCT090CB BKN200=

USA.gov is the U.S. government's official web portal to all federal, state and local government web resources and services.